Time;durP1;ratioP1;P1;durP2;ratioP2;P2;SDS_P1;SDS_P2;PMS_P1;PMS_P2;Temp;Humidity;BMP_temperature;BMP_pressure;BME280_temperature;BME280_humidity;BME280_pressure;Samples;Min_cycle;Max_cycle;Signal;HPM_P1;HPM_P2
2023/01/05 00:01:49;;;;;;;;;72.00;61.00;;;;;17.42;75.25;96140.25;5074654;28;9554;-59
2023/01/05 00:04:17;;;;;;;;;74.75;62.25;;;;;17.42;75.42;96129.22;5071737;28;9381;-59
2023/01/05 00:06:44;;;;;;;;;75.67;61.33;;;;;17.43;75.32;96127.28;5074004;28;9446;-60
2023/01/05 00:09:14;;;;;;;;;73.50;62.00;;;;;17.42;75.38;96126.47;5078972;28;9320;-60
2023/01/05 00:22:53;;;;;;;;;73.67;62.33;;;;;17.43;75.33;96121.75;5072172;28;9765;-60
2023/01/05 00:25:28;;;;;;;;;75.75;63.75;;;;;17.42;75.21;96120.19;5080399;28;9488;-59
2023/01/05 00:27:57;;;;;;;;;72.75;60.50;;;;;17.43;75.26;96110.72;5074507;28;9799;-59
2023/01/05 00:30:28;;;;;;;;;66.50;57.50;;;;;17.42;75.25;96112.69;5078149;28;9936;-60
2023/01/05 00:32:55;;;;;;;;;73.33;62.33;;;;;17.42;75.40;96118.19;5071970;28;8978;-59
2023/01/05 00:35:23;;;;;;;;;65.75;55.75;;;;;17.42;75.14;96112.69;5063251;28;10423;-59
2023/01/05 00:37:50;;;;;;;;;74.33;62.00;;;;;17.43;75.31;96111.50;5073815;28;10174;-60
2023/01/05 00:40:20;;;;;;;;;72.00;61.00;;;;;17.43;75.13;96108.75;5074023;28;9545;-59
2023/01/05 00:42:47;;;;;;;;;72.00;61.00;;;;;17.43;75.10;96099.69;5077199;28;10162;-59
2023/01/05 00:45:17;;;;;;;;;60.00;51.00;;;;;17.42;75.28;96093.38;5076386;28;9925;-60
2023/01/05 00:47:44;;;;;;;;;68.00;57.00;;;;;17.42;75.00;96101.66;5077133;28;8861;-60
2023/01/05 00:50:16;;;;;;;;;75.25;63.00;;;;;17.42;75.25;96093.38;5096240;27;9774;-57
2023/01/05 00:52:43;;;;;;;;;69.25;58.00;;;;;17.43;75.24;96089.44;5094419;28;9799;-59
2023/01/05 00:55:11;;;;;;;;;70.75;59.75;;;;;17.42;75.36;96085.13;5080997;28;9704;-58
2023/01/05 00:57:38;;;;;;;;;70.50;60.50;;;;;17.43;75.32;96085.91;5079470;28;9812;-58
2023/01/05 01:00:10;;;;;;;;;69.25;59.25;;;;;17.42;75.08;96079.59;5081567;28;10006;-58
2023/01/05 01:02:37;;;;;;;;;78.25;65.25;;;;;17.42;75.20;96076.84;5081300;28;9595;-58
2023/01/05 01:05:05;;;;;;;;;74.25;62.00;;;;;17.43;75.15;96072.91;5077201;28;10349;-59
2023/01/05 01:07:32;;;;;;;;;69.00;59.00;;;;;17.42;75.06;96068.56;5082260;28;9911;-59
2023/01/05 01:09:59;;;;;;;;;66.25;56.00;;;;;17.43;75.20;96069.38;5079299;28;9629;-58
2023/01/05 01:12:26;;;;;;;;;73.25;61.25;;;;;17.43;75.23;96070.16;5078787;28;9407;-58
2023/01/05 01:14:53;;;;;;;;;69.00;58.00;;;;;17.42;75.07;96057.56;5078182;28;9769;-59
2023/01/05 01:17:20;;;;;;;;;76.25;63.50;;;;;17.41;74.92;96064.25;5077056;28;9795;-58
2023/01/05 01:19:47;;;;;;;;;73.75;62.75;;;;;17.41;74.96;96055.97;5079971;28;10304;-60
2023/01/05 01:22:14;;;;;;;;;75.00;63.00;;;;;17.42;75.18;96063.06;5079374;28;10720;-58
2023/01/05 01:24:41;;;;;;;;;74.25;62.25;;;;;17.42;74.85;96060.31;5080354;28;9919;-58
2023/01/05 01:27:08;;;;;;;;;72.50;61.00;;;;;17.41;74.89;96055.97;5081182;28;9720;-57
2023/01/05 01:29:35;;;;;;;;;66.50;56.00;;;;;17.42;74.92;96063.06;5087144;28;9600;-57
2023/01/05 01:32:02;;;;;;;;;67.50;58.00;;;;;17.42;74.84;96059.53;5078118;28;8838;-58
2023/01/05 01:34:30;;;;;;;;;70.50;59.50;;;;;17.42;74.99;96067.81;5080463;28;8848;-57
2023/01/05 01:36:58;;;;;;;;;72.00;61.00;;;;;17.41;74.79;96058.72;5075419;28;10177;-57
2023/01/05 01:39:31;;;;;;;;;73.00;62.25;;;;;17.41;74.75;96060.72;5078718;28;9480;-57
2023/01/05 01:42:11;;;;;;;;;68.00;57.00;;;;;17.41;74.99;96067.00;5064412;28;9555;-58
2023/01/05 01:44:56;;;;;;;;;74.00;61.75;;;;;17.41;74.73;96060.72;5078623;28;8918;-58
2023/01/05 01:47:51;;;;;;;;;67.00;57.25;;;;;17.41;74.88;96052.44;5080517;28;9560;-59
2023/01/05 01:50:28;;;;;;;;;70.50;59.25;;;;;17.40;74.75;96062.66;5096159;28;9804;-59
2023/01/05 01:53:03;;;;;;;;;76.25;64.00;;;;;17.40;74.93;96062.66;5084559;28;8829;-59
2023/01/05 01:55:31;;;;;;;;;69.50;59.25;;;;;17.40;74.88;96054.38;5080055;28;10522;-59
2023/01/05 01:58:00;;;;;;;;;75.25;62.25;;;;;17.41;74.97;96060.72;5082685;28;8867;-59
2023/01/05 02:00:27;;;;;;;;;73.00;62.25;;;;;17.40;74.72;96057.16;5083098;28;9928;-58
2023/01/05 02:02:56;;;;;;;;;73.33;62.00;;;;;17.40;74.82;96056.38;5094610;28;9408;-59
2023/01/05 02:05:28;;;;;;;;;66.75;57.00;;;;;17.40;74.72;96054.38;5098865;28;9763;-58
2023/01/05 02:07:55;;;;;;;;;75.00;63.00;;;;;17.40;74.68;96054.38;5083871;28;8966;-58
2023/01/05 02:10:35;;;;;;;;;73.25;61.00;;;;;17.40;74.68;96048.88;5079855;28;9718;-58
2023/01/05 02:13:11;;;;;;;;;72.00;61.00;;;;;17.39;74.64;96047.34;5080754;28;10229;-59
2023/01/05 02:15:56;;;;;;;;;66.00;56.25;;;;;17.40;74.49;96054.38;5083583;28;9416;-59
2023/01/05 02:18:23;;;;;;;;;65.75;56.00;;;;;17.40;74.61;96051.63;5080729;28;9328;-59
2023/01/05 02:20:57;;;;;;;;;73.00;61.67;;;;;17.39;74.77;96052.84;5086691;28;9520;-59
2023/01/05 02:24:02;;;;;;;;;65.75;55.25;;;;;17.38;74.78;96054.03;5085488;28;9625;-57
2023/01/05 02:26:45;;;;;;;;;72.25;61.25;;;;;17.38;74.68;96048.50;5095894;28;11391;-57
2023/01/05 02:29:15;;;;;;;;;72.25;61.00;;;;;17.39;74.55;96049.28;5086537;28;9424;-58
2023/01/05 02:32:17;;;;;;;;;74.67;62.33;;;;;17.38;74.51;96043.00;5080512;28;9453;-59
2023/01/05 02:35:11;;;;;;;;;66.00;56.25;;;;;17.37;74.52;96041.41;5005697;28;9815;-59
2023/01/05 02:37:48;;;;;;;;;74.50;63.00;;;;;17.37;74.62;96041.41;5017952;28;9860;-59
2023/01/05 02:40:35;;;;;;;;;73.50;61.75;;;;;17.38;74.47;96039.44;5018807;28;9975;-59
2023/01/05 02:43:04;;;;;;;;;73.50;62.25;;;;;17.37;74.76;96030.38;5008256;28;10282;-59
2023/01/05 02:45:31;;;;;;;;;74.00;63.00;;;;;17.38;74.52;96031.16;5006691;28;9815;-57
2023/01/05 02:47:59;;;;;;;;;70.75;60.25;;;;;17.37;74.43;96033.16;5002895;28;9825;-58
2023/01/05 02:50:48;;;;;;;;;65.50;55.50;;;;;17.38;74.66;96028.41;5017527;28;8869;-58
2023/01/05 02:53:43;;;;;;;;;80.75;67.25;;;;;17.37;74.25;96033.16;5003968;28;10246;-59
2023/01/05 02:56:30;;;;;;;;;81.25;66.00;;;;;17.36;74.25;96026.06;5006370;28;10400;-59
2023/01/05 02:59:08;;;;;;;;;75.25;62.25;;;;;17.37;74.81;96024.06;5012042;28;10265;-58
2023/01/05 03:01:57;;;;;;;;;70.75;59.25;;;;;17.36;74.50;96017.78;5005587;28;10000;-59
2023/01/05 03:04:32;;;;;;;;;75.25;63.00;;;;;17.36;74.53;96023.31;5001734;28;9676;-58
2023/01/05 03:07:12;;;;;;;;;72.00;61.00;;;;;17.36;74.23;96022.53;5018052;28;9952;-58
2023/01/05 03:09:42;;;;;;;;;63.50;55.25;;;;;17.36;74.42;96020.53;5027907;28;9459;-58
2023/01/05 03:15:17;;;;;;;;;74.75;62.25;;;;;17.36;74.51;96019.78;5082263;28;9452;-58
2023/01/05 03:17:51;;;;;;;;;71.50;60.50;;;;;17.36;74.71;96019.78;5069278;28;10351;-58
2023/01/05 03:20:23;;;;;;;;;64.50;55.00;;;;;17.36;74.56;96014.25;5079986;28;9485;-58
2023/01/05 03:37:30;;;;;;;;;73.75;62.25;;;;;17.34;74.12;96006.38;5082681;28;9700;-58
2023/01/05 03:39:59;;;;;;;;;74.25;62.25;;;;;17.34;74.15;96000.06;5097544;27;9695;-59
2023/01/05 03:42:29;;;;;;;;;74.50;62.00;;;;;17.33;74.46;96004.00;5081783;28;9751;-59
2023/01/05 03:44:58;;;;;;;;;72.00;61.00;;;;;17.33;74.21;95993.75;5084857;28;9730;-58
2023/01/05 03:47:27;;;;;;;;;72.50;61.50;;;;;17.33;74.03;95993.75;5097624;27;9469;-58
2023/01/05 03:49:53;;;;;;;;;74.33;61.33;;;;;17.32;74.29;95994.94;5077442;28;9691;-57
2023/01/05 03:52:20;;;;;;;;;74.25;62.25;;;;;17.33;74.15;95987.47;5080995;28;9444;-58
2023/01/05 03:54:47;;;;;;;;;75.00;62.25;;;;;17.33;73.88;95990.22;5080886;28;9878;-57
2023/01/05 03:57:14;;;;;;;;;72.00;61.00;;;;;17.33;74.29;95991.00;5084572;28;10452;-58
2023/01/05 03:59:42;;;;;;;;;64.25;55.00;;;;;17.32;74.27;95986.66;5099996;28;9269;-58
2023/01/05 04:02:09;;;;;;;;;69.25;58.25;;;;;17.31;74.28;95982.38;5081929;28;9504;-58
2023/01/05 04:04:36;;;;;;;;;67.00;57.00;;;;;17.31;74.41;95987.88;5079399;28;9970;-57
2023/01/05 04:07:06;;;;;;;;;66.75;55.75;;;;;17.33;74.27;95985.50;5089768;28;9625;-58
2023/01/05 04:09:34;;;;;;;;;72.33;61.00;;;;;17.32;74.17;95983.91;5083996;28;9739;-58
2023/01/05 04:12:02;;;;;;;;;66.00;55.75;;;;;17.32;74.04;95986.66;5087129;28;9388;-58
2023/01/05 04:14:32;;;;;;;;;75.67;63.00;;;;;17.32;74.02;95989.44;5106237;27;9927;-58
2023/01/05 04:16:59;;;;;;;;;72.00;61.00;;;;;17.32;73.94;95986.66;5077490;28;9663;-58
2023/01/05 04:19:26;;;;;;;;;67.00;56.25;;;;;17.31;74.06;95990.63;5083442;28;9626;-58
2023/01/05 04:21:54;;;;;;;;;66.00;56.25;;;;;17.32;74.18;95980.38;5082368;28;9893;-58
2023/01/05 04:24:23;;;;;;;;;72.00;61.00;;;;;17.32;74.10;95988.66;5082802;28;10837;-57
2023/01/05 04:26:49;;;;;;;;;66.75;56.25;;;;;17.31;73.72;95990.63;5085179;28;9368;-58
2023/01/05 04:29:19;;;;;;;;;72.00;61.00;;;;;17.30;74.11;95986.31;5083974;28;9577;-58
2023/01/05 04:31:48;;;;;;;;;72.00;61.00;;;;;17.30;73.98;95978.03;5084624;28;9892;-58
2023/01/05 04:34:16;;;;;;;;;66.00;55.00;;;;;17.30;73.92;95975.28;5082646;28;9604;-58
2023/01/05 04:36:46;;;;;;;;;65.00;55.50;;;;;17.31;73.85;95985.13;5080505;28;9497;-57
2023/01/05 04:39:16;;;;;;;;;66.50;57.00;;;;;17.31;73.78;95982.38;5084574;28;9762;-57
2023/01/05 04:41:42;;;;;;;;;65.75;55.00;;;;;17.31;73.97;95976.06;5097904;28;8863;-57
2023/01/05 04:44:10;;;;;;;;;64.50;55.00;;;;;17.31;73.75;95981.56;5082305;28;9613;-57
2023/01/05 04:46:37;;;;;;;;;73.00;61.67;;;;;17.30;73.79;95979.97;5085009;28;10839;-58
2023/01/05 04:49:04;;;;;;;;;65.00;55.25;;;;;17.30;73.96;95968.97;5082434;28;9641;-58
2023/01/05 04:51:31;;;;;;;;;72.00;61.00;;;;;17.30;73.75;95980.78;5081852;28;10288;-58
2023/01/05 04:53:58;;;;;;;;;73.75;62.25;;;;;17.30;73.89;95980.78;5086835;28;10169;-58
2023/01/05 04:56:25;;;;;;;;;72.00;60.50;;;;;17.30;73.79;95977.22;5078657;28;11524;-58
2023/01/05 04:58:52;;;;;;;;;63.00;55.00;;;;;17.29;73.52;95976.47;5082338;28;10199;-58
2023/01/05 05:01:19;;;;;;;;;75.00;61.33;;;;;17.30;73.80;95977.22;5077533;28;9495;-58
2023/01/05 05:03:51;;;;;;;;;65.75;55.00;;;;;17.29;73.75;95968.19;5086079;28;11304;-57
2023/01/05 05:06:20;;;;;;;;;74.67;61.33;;;;;17.29;73.53;95973.69;5085448;28;9889;-58
2023/01/05 05:08:48;;;;;;;;;65.00;55.25;;;;;17.30;73.88;95971.72;5082615;28;9549;-58
2023/01/05 05:11:16;;;;;;;;;72.00;61.00;;;;;17.30;73.97;95974.47;5082731;28;9567;-58
2023/01/05 05:13:45;;;;;;;;;65.50;55.75;;;;;17.27;73.74;95965.81;5097835;27;10067;-58
2023/01/05 05:16:13;;;;;;;;;66.00;56.25;;;;;17.28;73.62;95974.88;5099255;27;9853;-58
2023/01/05 05:18:42;;;;;;;;;65.75;55.25;;;;;17.29;73.64;95968.19;5084062;28;9662;-58
2023/01/05 05:21:14;;;;;;;;;65.25;55.50;;;;;17.28;73.82;95961.09;5085538;28;9915;-57
2023/01/05 05:23:42;;;;;;;;;73.25;62.00;;;;;17.28;73.92;95977.63;5080178;28;10413;-58
2023/01/05 05:26:08;;;;;;;;;65.00;55.00;;;;;17.29;73.77;95975.66;5084844;28;11660;-58
2023/01/05 05:28:35;;;;;;;;;72.00;61.00;;;;;17.28;73.88;95983.16;5082959;28;9823;-58
2023/01/05 05:31:02;;;;;;;;;72.25;61.25;;;;;17.29;73.86;95986.69;5085081;28;9955;-58
2023/01/05 05:33:29;;;;;;;;;66.00;56.00;;;;;17.28;74.03;95983.16;5079047;28;9703;-57
2023/01/05 05:35:56;;;;;;;;;65.50;55.00;;;;;17.28;73.59;95980.38;5084975;28;8836;-58
2023/01/05 05:38:23;;;;;;;;;64.25;55.00;;;;;17.28;73.81;95977.63;5080977;28;9467;-58
2023/01/05 05:40:50;;;;;;;;;64.00;54.75;;;;;17.27;73.92;95974.06;5083465;28;9467;-58
2023/01/05 05:43:17;;;;;;;;;66.75;56.75;;;;;17.29;73.84;95972.91;5085392;28;9595;-58
2023/01/05 05:45:44;;;;;;;;;68.25;58.25;;;;;17.28;73.81;95977.63;5084897;28;9431;-58
2023/01/05 05:48:16;;;;;;;;;65.50;55.75;;;;;17.29;73.55;95975.66;5087062;28;8825;-58
2023/01/05 05:50:44;;;;;;;;;72.00;61.00;;;;;17.27;74.01;95974.06;5080404;28;10072;-58
2023/01/05 05:53:11;;;;;;;;;66.33;57.00;;;;;17.28;73.59;95983.16;5084605;28;9434;-58
2023/01/05 05:55:39;;;;;;;;;72.00;61.00;;;;;17.27;73.94;95976.06;5087600;28;10018;-58
2023/01/05 05:58:06;;;;;;;;;63.50;55.00;;;;;17.29;73.91;95981.16;5086370;28;9514;-58
2023/01/05 06:00:32;;;;;;;;;70.67;59.33;;;;;17.28;73.81;95974.88;5084036;28;10423;-57
2023/01/05 06:02:59;;;;;;;;;66.00;55.00;;;;;17.29;73.70;95981.16;5096818;28;9256;-58
2023/01/05 06:05:27;;;;;;;;;64.25;55.00;;;;;17.28;73.59;95980.38;5091678;28;8938;-57
2023/01/05 06:07:54;;;;;;;;;64.25;55.00;;;;;17.28;73.63;95974.88;5087107;28;8868;-57
2023/01/05 06:10:21;;;;;;;;;65.00;56.00;;;;;17.27;73.63;95976.06;5087551;28;9298;-57
2023/01/05 06:12:48;;;;;;;;;69.50;59.25;;;;;17.27;73.77;95976.06;5092367;28;9740;-57
2023/01/05 06:15:15;;;;;;;;;68.00;58.00;;;;;17.28;73.81;95977.63;5095348;28;8859;-57
2023/01/05 06:17:42;;;;;;;;;71.25;60.25;;;;;17.27;73.91;95982.34;5085244;28;9774;-57
2023/01/05 06:20:09;;;;;;;;;72.00;61.00;;;;;17.27;73.85;95979.59;5087133;28;10714;-56
2023/01/05 06:22:36;;;;;;;;;71.33;60.00;;;;;17.27;73.72;95982.34;5081468;28;9548;-57
2023/01/05 06:25:04;;;;;;;;;62.50;54.00;;;;;17.28;73.89;95985.91;5087813;28;10036;-58
2023/01/05 06:27:30;;;;;;;;;73.33;62.33;;;;;17.26;73.85;95986.31;5093371;28;8822;-58
2023/01/05 06:29:57;;;;;;;;;72.75;61.50;;;;;17.27;73.63;95987.84;5090779;28;9323;-57
2023/01/05 06:32:24;;;;;;;;;70.67;59.33;;;;;17.28;73.84;95994.16;5087746;28;9439;-56
2023/01/05 06:34:51;;;;;;;;;72.25;61.50;;;;;17.29;73.53;95994.94;5083694;28;9853;-57
2023/01/05 06:37:18;;;;;;;;;65.50;55.75;;;;;17.26;73.74;96002.84;5090315;28;9392;-56
2023/01/05 06:39:45;;;;;;;;;64.50;55.00;;;;;17.27;73.84;96000.84;5085398;28;8955;-57
2023/01/05 06:42:11;;;;;;;;;64.25;55.50;;;;;17.27;73.54;96000.84;5087196;28;8829;-57
2023/01/05 06:44:38;;;;;;;;;72.25;61.25;;;;;17.26;73.62;95997.31;5088626;28;9599;-57
2023/01/05 06:47:05;;;;;;;;;75.00;62.33;;;;;17.28;73.59;95999.69;5087446;28;9311;-57
2023/01/05 06:49:32;;;;;;;;;71.50;60.50;;;;;17.27;73.69;96004.38;5087695;28;10224;-57
2023/01/05 06:51:59;;;;;;;;;71.25;60.25;;;;;17.27;73.63;96006.38;5087220;28;9348;-56
2023/01/05 06:54:26;;;;;;;;;70.33;59.33;;;;;17.28;73.79;96005.19;5081605;28;9458;-57
2023/01/05 06:56:53;;;;;;;;;65.00;55.75;;;;;17.28;73.90;96002.44;5079111;28;9226;-57
2023/01/05 06:59:20;;;;;;;;;75.67;61.33;;;;;17.28;73.82;96007.94;5081536;28;8840;-58
2023/01/05 07:01:46;;;;;;;;;70.67;59.67;;;;;17.27;73.83;96001.63;5080927;28;9801;-58
2023/01/05 07:04:13;;;;;;;;;72.33;61.00;;;;;17.28;73.88;96002.44;5077063;28;9143;-58
2023/01/05 07:06:41;;;;;;;;;69.33;58.33;;;;;17.28;73.99;95996.94;5085203;28;10007;-58
2023/01/05 07:09:08;;;;;;;;;63.00;54.50;;;;;17.28;73.60;95996.94;5083678;28;10256;-58
2023/01/05 07:11:35;;;;;;;;;64.00;55.25;;;;;17.30;73.84;95999.28;5084920;28;9965;-59
2023/01/05 07:14:02;;;;;;;;;73.00;61.25;;;;;17.30;73.96;95999.28;5081531;28;8883;-59
2023/01/05 07:16:29;;;;;;;;;64.50;55.25;;;;;17.29;73.81;96001.25;5085907;28;9859;-57
2023/01/05 07:18:55;;;;;;;;;63.25;55.25;;;;;17.30;73.89;95996.53;5086109;28;8859;-57
2023/01/05 07:21:22;;;;;;;;;63.25;55.25;;;;;17.30;73.83;95994.56;5086545;28;8814;-57
2023/01/05 07:23:49;;;;;;;;;71.75;60.75;;;;;17.30;73.95;95997.31;5085303;28;8845;-58
2023/01/05 07:26:16;;;;;;;;;64.25;54.25;;;;;17.30;73.92;95999.28;5084063;28;9453;-58
2023/01/05 07:28:43;;;;;;;;;78.00;66.25;;;;;17.30;73.87;95999.28;5088319;28;9609;-58
2023/01/05 07:31:10;;;;;;;;;64.75;55.25;;;;;17.30;74.14;95993.75;5081816;28;9950;-57
2023/01/05 07:33:37;;;;;;;;;72.25;61.00;;;;;17.31;73.97;96000.84;5085499;28;9023;-58
2023/01/05 07:36:06;;;;;;;;;72.00;61.00;;;;;17.30;73.82;96002.84;5082813;28;9992;-58
2023/01/05 07:38:33;;;;;;;;;71.67;60.67;;;;;17.31;73.94;96001.66;5083077;28;9010;-58
2023/01/05 07:41:02;;;;;;;;;69.25;58.75;;;;;17.31;73.90;95998.09;5083237;28;9456;-58
2023/01/05 07:43:29;;;;;;;;;72.25;61.25;;;;;17.30;74.10;96002.84;5080159;28;8880;-58
2023/01/05 07:46:00;;;;;;;;;72.00;61.00;;;;;17.30;73.71;96002.84;5075904;28;9416;-58
2023/01/05 07:48:27;;;;;;;;;78.25;65.25;;;;;17.30;73.44;95997.31;5076017;28;9316;-58
2023/01/05 07:51:02;;;;;;;;;78.25;65.25;;;;;17.30;73.50;95997.31;5073170;28;10111;-58
2023/01/05 07:53:30;;;;;;;;;76.75;65.25;;;;;17.29;73.44;95995.75;5077374;28;10014;-58
2023/01/05 07:55:59;;;;;;;;;78.25;65.25;;;;;17.29;73.44;96001.25;5074275;28;10189;-57
2023/01/05 07:58:28;;;;;;;;;75.75;64.25;;;;;17.29;73.52;95995.75;5076953;28;9872;-57
2023/01/05 08:00:55;;;;;;;;;69.25;58.00;;;;;17.29;73.66;95990.25;5080112;28;9877;-59
2023/01/05 08:03:22;;;;;;;;;69.00;57.25;;;;;17.30;73.98;95993.75;5086227;28;8821;-57
2023/01/05 08:05:49;;;;;;;;;69.00;59.00;;;;;17.28;73.61;95985.91;5080079;28;8901;-59
2023/01/05 08:08:16;;;;;;;;;73.75;62.75;;;;;17.19;70.72;95985.50;5083054;28;8936;-61
2023/01/05 08:10:49;;;;;;;;;74.50;62.00;;;;;17.15;72.61;95984.72;5083565;28;9702;-60
2023/01/05 08:16:02;;;;;;;;;67.00;56.00;;;;;17.20;72.27;95981.56;5078904;28;8885;-62
2023/01/05 08:18:29;;;;;;;;;72.25;61.25;;;;;17.20;71.85;95984.34;5083056;28;8834;-61
2023/01/05 08:20:59;;;;;;;;;74.67;63.00;;;;;17.19;72.46;95980.00;5081083;28;9376;-60
2023/01/05 08:23:26;;;;;;;;;73.50;62.25;;;;;17.20;72.24;95982.34;5073680;28;9294;-65
2023/01/05 08:26:01;;;;;;;;;68.25;57.25;;;;;17.09;71.83;95982.38;5073609;28;9529;-60
2023/01/05 08:28:29;;;;;;;;;71.00;60.00;;;;;17.09;70.14;95984.34;5074323;28;9652;-62
2023/01/05 08:31:03;;;;;;;;;70.50;59.75;;;;;16.90;64.54;95978.00;5085431;28;10083;-64
2023/01/05 08:33:30;;;;;;;;;76.00;64.00;;;;;16.76;67.82;95983.50;5088196;28;8916;-63
2023/01/05 08:35:57;;;;;;;;;78.50;64.50;;;;;16.72;69.45;95980.72;5084188;28;9659;-64
2023/01/05 08:38:24;;;;;;;;;69.50;58.00;;;;;16.74;69.90;95991.38;5086952;28;9528;-64
2023/01/05 08:40:51;;;;;;;;;75.00;63.00;;;;;16.76;70.50;95981.53;5084856;28;9255;-64
2023/01/05 08:43:18;;;;;;;;;76.00;62.25;;;;;16.80;70.70;95992.53;5084625;28;9860;-65
2023/01/05 08:45:51;;;;;;;;;74.67;63.00;;;;;16.82;70.10;95990.19;5080273;28;9616;-64
2023/01/05 08:48:18;;;;;;;;;71.00;59.75;;;;;16.85;70.40;95988.63;5083814;28;9828;-64
2023/01/05 08:50:45;;;;;;;;;75.50;62.50;;;;;16.86;70.53;95981.94;5081948;28;9325;-64
2023/01/05 08:53:12;;;;;;;;;76.00;63.00;;;;;16.88;70.06;95979.59;5081414;28;9877;-64
2023/01/05 08:55:39;;;;;;;;;72.67;61.67;;;;;16.88;69.89;95983.13;5073971;28;9675;-64
2023/01/05 08:58:06;;;;;;;;;68.00;57.50;;;;;16.89;69.21;95981.94;5072648;28;9383;-64
2023/01/05 09:00:33;;;;;;;;;75.50;63.00;;;;;16.90;69.30;95988.22;5077956;28;9642;-64
2023/01/05 09:03:00;;;;;;;;;75.00;62.25;;;;;16.91;69.05;95992.56;5078719;28;9577;-64
2023/01/05 09:05:27;;;;;;;;;68.00;58.00;;;;;16.89;68.88;95995.72;5081928;28;10076;-64
2023/01/05 09:07:54;;;;;;;;;72.00;61.00;;;;;16.89;68.73;95990.19;5078044;28;9551;-65
2023/01/05 09:10:21;;;;;;;;;68.25;56.50;;;;;16.89;68.98;95987.44;5081499;28;9586;-64
2023/01/05 09:12:48;;;;;;;;;75.75;63.00;;;;;16.89;68.34;95990.19;5081726;28;8918;-64
2023/01/05 09:15:15;;;;;;;;;68.00;57.25;;;;;16.89;68.25;95992.19;5082056;28;10189;-64
2023/01/05 09:17:42;;;;;;;;;73.00;60.25;;;;;16.87;68.60;95992.56;5080327;28;9495;-64
2023/01/05 09:20:09;;;;;;;;;78.50;65.50;;;;;16.87;67.95;95992.56;5077089;28;9300;-64
2023/01/05 09:22:36;;;;;;;;;69.00;57.00;;;;;16.87;68.20;95991.78;5081256;28;10223;-64
2023/01/05 09:25:04;;;;;;;;;74.25;62.75;;;;;16.86;67.93;95987.44;5078793;28;9628;-64
2023/01/05 09:27:30;;;;;;;;;75.75;63.75;;;;;16.86;67.73;95985.47;5080115;28;9465;-64
2023/01/05 09:29:57;;;;;;;;;75.00;63.00;;;;;16.86;68.40;95990.97;5076496;28;9742;-64
2023/01/05 09:32:24;;;;;;;;;67.25;57.00;;;;;16.85;68.21;95996.88;5086270;28;10390;-64
2023/01/05 09:34:51;;;;;;;;;13.00;13.00;;;;;16.84;68.59;95998.88;5094346;28;9798;-64
2023/01/05 09:37:18;;;;;;;;;66.00;56.25;;;;;16.85;68.39;96000.41;5083707;28;11816;-64
2023/01/05 09:39:46;;;;;;;;;70.50;60.50;;;;;16.86;68.47;96002.00;5086054;28;10236;-64
2023/01/05 09:42:17;;;;;;;;;67.25;57.00;;;;;16.86;68.16;95999.25;5085400;28;9437;-64
2023/01/05 09:44:53;;;;;;;;;75.25;63.00;;;;;16.86;67.91;95996.47;5091426;28;11680;-64
2023/01/05 09:47:33;;;;;;;;;67.00;56.50;;;;;16.86;68.43;95999.25;5078726;28;9588;-64
2023/01/05 09:50:01;;;;;;;;;74.50;62.75;;;;;16.87;68.43;96005.56;5091178;28;8873;-64
2023/01/05 09:52:28;;;;;;;;;67.00;57.00;;;;;16.87;69.25;95998.06;5081997;28;9894;-64
2023/01/05 09:55:22;;;;;;;;;75.00;63.00;;;;;16.89;69.05;96001.22;5086320;28;8853;-64
2023/01/05 09:58:05;;;;;;;;;66.75;56.25;;;;;16.66;66.48;95998.81;5078606;28;9751;-58
2023/01/05 10:00:32;;;;;;;;;65.25;55.00;;;;;16.73;70.14;96003.56;5080843;28;9057;-56
2023/01/05 10:03:09;;;;;;;;;72.00;61.00;;;;;16.78;69.93;96009.47;5079248;28;8919;-57
2023/01/05 10:05:46;;;;;;;;;65.00;55.00;;;;;16.80;70.20;96006.31;5077195;28;9792;-57
2023/01/05 10:08:26;;;;;;;;;75.00;62.25;;;;;16.79;70.18;96008.31;5081001;28;8825;-57
2023/01/05 10:14:18;;;;;;;;;73.00;62.50;;;;;16.84;70.30;96007.13;5081498;28;8940;-57
2023/01/05 10:16:46;;;;;;;;;66.25;57.00;;;;;16.85;70.49;96005.16;5074519;28;9672;-57
2023/01/05 10:19:29;;;;;;;;;72.00;61.00;;;;;16.86;70.53;96004.75;5075174;28;8860;-57
2023/01/05 10:22:26;;;;;;;;;72.00;61.00;;;;;16.87;70.57;96003.56;5082400;28;10183;-57
2023/01/05 10:25:27;;;;;;;;;73.00;62.50;;;;;16.88;70.75;95999.63;5077450;28;10077;-58
2023/01/05 10:27:59;;;;;;;;;64.25;55.25;;;;;16.90;70.63;96002.78;5077534;28;9340;-56
2023/01/05 10:31:00;;;;;;;;;64.00;54.75;;;;;16.90;70.70;96000.03;5071893;28;9829;-57
2023/01/05 10:33:51;;;;;;;;;72.67;61.00;;;;;16.91;71.13;95998.88;5068304;28;8928;-57
2023/01/05 10:36:39;;;;;;;;;66.50;57.00;;;;;16.93;70.81;96002.03;5080170;28;9328;-57
2023/01/05 10:39:35;;;;;;;;;67.75;58.00;;;;;16.94;70.57;95989.06;5074994;28;8845;-57
2023/01/05 10:42:02;;;;;;;;;72.00;60.67;;;;;16.95;70.89;95994.16;5078557;28;9626;-57
2023/01/05 10:44:38;;;;;;;;;71.67;60.67;;;;;16.96;70.75;95983.94;5082068;28;9657;-57
2023/01/05 10:47:09;;;;;;;;;66.75;57.25;;;;;16.97;70.35;95987.47;5079803;28;9278;-56
2023/01/05 10:49:39;;;;;;;;;67.75;58.00;;;;;16.97;70.24;95980.00;5080646;28;9719;-57
2023/01/05 10:52:15;;;;;;;;;64.00;54.25;;;;;16.98;70.54;95981.56;5075224;28;9786;-57
2023/01/05 10:54:58;;;;;;;;;71.33;60.33;;;;;16.82;69.59;95981.13;5076627;28;8858;-63
2023/01/05 10:57:28;;;;;;;;;67.50;58.00;;;;;16.82;69.43;95973.69;5075022;28;9073;-62
2023/01/05 11:00:01;;;;;;;;;67.25;56.25;;;;;16.82;68.79;95979.19;5073952;28;8848;-63
2023/01/05 11:02:34;;;;;;;;;72.50;61.50;;;;;16.82;69.00;95972.88;5087456;28;8853;-63
2023/01/05 11:05:10;;;;;;;;;72.25;61.25;;;;;16.81;68.53;95966.59;5073045;28;9530;-62
2023/01/05 11:07:55;;;;;;;;;63.25;54.25;;;;;16.80;68.96;95968.53;5079938;28;9620;-62
2023/01/05 11:10:30;;;;;;;;;67.75;57.75;;;;;16.80;69.06;95965.78;5072349;28;8840;-63
2023/01/05 11:13:06;;;;;;;;;66.25;55.50;;;;;16.80;69.16;95952.00;5078660;28;8825;-62
2023/01/05 11:15:41;;;;;;;;;65.25;54.00;;;;;16.80;68.97;95962.25;5080104;28;8899;-62
2023/01/05 11:18:25;;;;;;;;;71.33;60.00;;;;;16.81;67.91;95955.56;5095875;27;8946;-63
2023/01/05 11:21:11;;;;;;;;;72.25;61.00;;;;;16.82;68.26;95948.09;5078467;28;9316;-63
2023/01/05 11:24:01;;;;;;;;;72.50;60.00;;;;;16.83;68.88;95950.47;5074768;28;9523;-63
2023/01/05 11:26:34;;;;;;;;;72.50;61.50;;;;;16.83;68.37;95935.91;5084402;28;9651;-62
2023/01/05 11:29:07;;;;;;;;;65.25;56.00;;;;;16.84;68.44;95934.72;5074137;28;9568;-64
2023/01/05 11:31:50;;;;;;;;;71.50;60.50;;;;;16.85;67.90;95928.03;5074339;28;8817;-63
2023/01/05 11:34:45;;;;;;;;;66.50;56.25;;;;;16.84;67.60;95924.50;5076231;28;9386;-63
2023/01/05 11:37:29;;;;;;;;;73.75;62.25;;;;;16.84;67.26;95916.25;5076812;28;8905;-63
2023/01/05 11:39:59;;;;;;;;;74.25;63.00;;;;;16.81;66.12;95914.25;5078831;28;10217;-62
2023/01/05 11:42:28;;;;;;;;;66.50;55.25;;;;;16.82;63.53;95912.28;5080388;28;9934;-61
2023/01/05 11:44:59;;;;;;;;;72.25;61.00;;;;;16.75;65.43;95916.63;5075155;28;8860;-60
2023/01/05 11:47:33;;;;;;;;;72.00;61.00;;;;;16.76;65.48;95904.44;5080021;28;9659;-61
2023/01/05 11:50:12;;;;;;;;;74.50;61.00;;;;;16.78;61.83;95902.06;5096275;28;10252;-60
2023/01/05 11:52:44;;;;;;;;;71.00;60.00;;;;;16.74;61.81;95895.78;5079979;28;9680;-63
2023/01/05 11:55:40;;;;;;;;;67.00;56.50;;;;;16.71;62.28;95888.31;5079760;28;9179;-59
2023/01/05 11:58:16;;;;;;;;;65.00;55.25;;;;;16.71;61.47;95885.56;5063380;28;8844;-61
2023/01/05 12:01:01;;;;;;;;;68.25;58.75;;;;;16.71;60.83;95884.75;5076895;28;8860;-61
2023/01/05 12:03:48;;;;;;;;;79.00;66.25;;;;;16.71;61.37;95888.31;5078842;28;8906;-62
2023/01/05 12:06:41;;;;;;;;;70.00;59.00;;;;;16.69;61.61;95876.91;5071818;28;10000;-61
2023/01/05 12:09:14;;;;;;;;;72.25;61.00;;;;;16.69;63.13;95876.09;5074187;28;8891;-61
2023/01/05 12:11:59;;;;;;;;;73.67;61.33;;;;;16.70;62.89;95870.22;5080113;28;9562;-61
2023/01/05 12:14:28;;;;;;;;;65.50;56.25;;;;;16.73;64.89;95869.41;5077414;28;9244;-62
2023/01/05 12:16:56;;;;;;;;;66.25;57.00;;;;;16.74;64.47;95861.94;5074759;28;8828;-62
2023/01/05 12:19:42;;;;;;;;;64.25;54.25;;;;;16.76;64.57;95854.09;5078177;28;8850;-62